createdAt,value
2023-03-02T06:49:14.251Z,100515.28
2023-03-02T06:52:05.990Z,100515.28
2023-03-02T06:54:52.486Z,100520.03
2023-03-02T06:57:37.939Z,100523.62
2023-03-02T07:00:28.442Z,100521.00
2023-03-02T07:03:22.448Z,100515.97
2023-03-02T07:06:08.505Z,100527.94
2023-03-02T07:08:54.289Z,100522.78
2023-03-02T07:11:40.087Z,100527.03
2023-03-02T07:14:25.578Z,100520.09
2023-03-02T07:17:10.913Z,100528.19
2023-03-02T07:19:56.209Z,100525.34
2023-03-02T07:22:41.716Z,100533.28
2023-03-02T07:25:27.389Z,100531.59
2023-03-02T07:28:13.114Z,100532.19
2023-03-02T07:30:58.279Z,100526.97
2023-03-02T07:33:43.918Z,100529.72
2023-03-02T07:36:30.196Z,100533.13
2023-03-02T07:39:20.816Z,100528.22
2023-03-02T07:42:08.878Z,100541.06
2023-03-02T07:44:54.508Z,100531.63
2023-03-02T07:47:40.260Z,100536.25
2023-03-02T07:50:25.881Z,100542.75
2023-03-02T07:53:11.336Z,100537.47
2023-03-02T07:55:56.656Z,100546.41
2023-03-02T07:58:42.318Z,100546.28
2023-03-02T08:01:27.530Z,100544.28
2023-03-02T08:04:13.396Z,100541.91
2023-03-02T08:07:01.179Z,100543.00
2023-03-02T08:09:46.708Z,100544.63
2023-03-02T08:12:32.127Z,100538.56
2023-03-02T08:15:17.579Z,100543.44
2023-03-02T08:18:04.435Z,100544.12
2023-03-02T08:20:49.806Z,100539.72
2023-03-02T08:23:35.072Z,100536.13
2023-03-02T08:26:21.045Z,100545.28
2023-03-02T08:29:07.055Z,100541.19
2023-03-02T08:31:52.258Z,100542.94
2023-03-02T08:34:37.998Z,100548.87
2023-03-02T08:37:23.324Z,100545.16
2023-03-02T08:40:09.678Z,100547.88
2023-03-02T08:42:57.375Z,100536.81
2023-03-02T08:45:42.661Z,100545.69
2023-03-02T08:48:29.573Z,100542.13
2023-03-02T08:51:19.730Z,100542.84
2023-03-02T08:54:07.084Z,100540.12
2023-03-02T08:56:53.216Z,100539.25
2023-03-02T08:59:40.039Z,100538.28
2023-03-02T09:02:25.578Z,100537.31
2023-03-02T09:05:14.064Z,100547.03
2023-03-02T09:08:05.049Z,100546.25
2023-03-02T09:10:50.025Z,100531.84
2023-03-02T09:13:35.452Z,100533.38
2023-03-02T09:16:24.091Z,100539.63
2023-03-02T09:19:10.744Z,100549.03
2023-03-02T09:21:55.956Z,100534.56
2023-03-02T09:24:42.443Z,100540.44
2023-03-02T09:27:28.460Z,100541.03
2023-03-02T09:30:20.229Z,100544.97
2023-03-02T09:33:07.135Z,100540.06
2023-03-02T09:35:53.193Z,100551.97
2023-03-02T09:38:38.984Z,100551.72
2023-03-02T09:41:56.804Z,100536.94
2023-03-02T09:44:53.249Z,100553.16
2023-03-02T09:47:47.827Z,100549.88
2023-03-02T09:50:37.933Z,100542.75
2023-03-02T09:53:37.824Z,100548.69
2023-03-02T09:56:24.473Z,100554.09
2023-03-02T09:59:16.400Z,100553.78
2023-03-02T10:02:19.899Z,100558.09
2023-03-02T10:05:08.877Z,100556.81
2023-03-02T10:07:54.529Z,100558.16
2023-03-02T10:10:46.342Z,100557.06
2023-03-02T10:13:37.257Z,100556.81
2023-03-02T10:16:35.339Z,100560.25
2023-03-02T10:19:32.447Z,100547.19
2023-03-02T10:22:26.313Z,100557.47
2023-03-02T10:25:20.493Z,100551.12
2023-03-02T10:28:13.441Z,100550.03
2023-03-02T10:31:11.086Z,100551.91
2023-03-02T10:33:57.365Z,100552.37
2023-03-02T10:36:45.044Z,100548.91
2023-03-02T10:39:30.353Z,100535.87
2023-03-02T10:42:22.928Z,100543.66
2023-03-02T10:45:26.437Z,100548.03
2023-03-02T10:48:14.538Z,100548.78
2023-03-02T10:51:00.803Z,100550.94
2023-03-02T10:53:46.370Z,100527.25
2023-03-02T10:56:32.289Z,100542.44
2023-03-02T10:59:43.239Z,100520.31
2023-03-02T11:02:33.508Z,100543.16
2023-03-02T11:05:27.893Z,100532.88
2023-03-02T11:08:21.887Z,100540.06
2023-03-02T11:11:21.910Z,100533.81
2023-03-02T11:14:19.543Z,100530.47
2023-03-02T11:17:33.363Z,100518.25
2023-03-02T11:20:25.460Z,100529.75
2023-03-02T11:23:32.011Z,100530.28
2023-03-02T11:26:26.478Z,100530.75
2023-03-02T11:29:24.789Z,100519.16
2023-03-02T11:32:17.559Z,100531.72
2023-03-02T11:35:33.284Z,100535.91
2023-03-02T11:38:23.938Z,100532.59
2023-03-02T11:41:30.224Z,100524.13
2023-03-02T11:44:18.360Z,100530.75
2023-03-02T11:47:03.832Z,100529.56
2023-03-02T11:49:54.914Z,100529.38
2023-03-02T11:52:45.093Z,100524.50
2023-03-02T11:55:34.450Z,100522.72
2023-03-02T11:58:22.830Z,100521.66
2023-03-02T12:01:11.278Z,100501.25
2023-03-02T12:04:11.662Z,100523.34
2023-03-02T12:06:57.121Z,100517.94
2023-03-02T12:09:43.119Z,100506.91
2023-03-02T12:12:46.583Z,100518.31
2023-03-02T12:15:47.568Z,100522.28
2023-03-02T12:18:51.948Z,100518.72
2023-03-02T12:22:01.079Z,100511.09
2023-03-02T12:24:46.747Z,100509.03
2023-03-02T12:27:38.111Z,100498.34
2023-03-02T12:30:27.369Z,100511.97
2023-03-02T12:33:21.082Z,100516.94
